sensor_id;sensor_type;location;lat;lon;timestamp;P1;durP1;ratioP1;P2;durP2;ratioP2
51872;SDS011;52863;52.504;13.480;2022-11-14T00:00:06;68.37;;;34.53;;
51872;SDS011;52863;52.504;13.480;2022-11-14T00:02:38;62.23;;;32.60;;
51872;SDS011;52863;52.504;13.480;2022-11-14T00:05:06;45.20;;;22.33;;
51872;SDS011;52863;52.504;13.480;2022-11-14T00:07:34;60.27;;;28.90;;
51872;SDS011;52863;52.504;13.480;2022-11-14T00:10:01;64.73;;;31.90;;
51872;SDS011;52863;52.504;13.480;2022-11-14T00:12:28;69.87;;;35.73;;
51872;SDS011;52863;52.504;13.480;2022-11-14T00:14:55;65.67;;;33.73;;
51872;SDS011;52863;52.504;13.480;2022-11-14T00:17:22;33.43;;;18.40;;
51872;SDS011;52863;52.504;13.480;2022-11-14T00:19:48;69.87;;;34.70;;
51872;SDS011;52863;52.504;13.480;2022-11-14T00:22:15;65.47;;;33.27;;
51872;SDS011;52863;52.504;13.480;2022-11-14T00:24:42;69.17;;;34.80;;
51872;SDS011;52863;52.504;13.480;2022-11-14T00:27:09;61.30;;;31.10;;
51872;SDS011;52863;52.504;13.480;2022-11-14T00:29:37;74.27;;;35.47;;
51872;SDS011;52863;52.504;13.480;2022-11-14T00:32:04;38.30;;;19.97;;
51872;SDS011;52863;52.504;13.480;2022-11-14T00:34:32;78.57;;;34.80;;
51872;SDS011;52863;52.504;13.480;2022-11-14T00:36:58;68.03;;;33.70;;
51872;SDS011;52863;52.504;13.480;2022-11-14T00:39:25;58.13;;;27.37;;
51872;SDS011;52863;52.504;13.480;2022-11-14T00:41:52;68.47;;;33.03;;
51872;SDS011;52863;52.504;13.480;2022-11-14T00:44:19;30.43;;;16.97;;
51872;SDS011;52863;52.504;13.480;2022-11-14T00:46:46;68.67;;;33.07;;
51872;SDS011;52863;52.504;13.480;2022-11-14T00:49:12;66.63;;;34.13;;
51872;SDS011;52863;52.504;13.480;2022-11-14T00:51:40;69.13;;;34.20;;
51872;SDS011;52863;52.504;13.480;2022-11-14T00:54:06;74.77;;;34.00;;
51872;SDS011;52863;52.504;13.480;2022-11-14T00:56:33;43.03;;;21.27;;
51872;SDS011;52863;52.504;13.480;2022-11-14T00:59:00;76.43;;;35.83;;
51872;SDS011;52863;52.504;13.480;2022-11-14T01:01:27;81.67;;;37.70;;
51872;SDS011;52863;52.504;13.480;2022-11-14T01:03:54;76.87;;;36.03;;
51872;SDS011;52863;52.504;13.480;2022-11-14T01:06:21;74.87;;;33.83;;
51872;SDS011;52863;52.504;13.480;2022-11-14T01:08:49;75.53;;;35.03;;
51872;SDS011;52863;52.504;13.480;2022-11-14T01:11:17;90.97;;;37.93;;
51872;SDS011;52863;52.504;13.480;2022-11-14T01:13:46;83.80;;;36.23;;
51872;SDS011;52863;52.504;13.480;2022-11-14T01:16:12;80.97;;;34.80;;
51872;SDS011;52863;52.504;13.480;2022-11-14T01:18:39;63.93;;;27.17;;
51872;SDS011;52863;52.504;13.480;2022-11-14T01:21:06;45.33;;;22.00;;
51872;SDS011;52863;52.504;13.480;2022-11-14T01:23:34;50.23;;;23.47;;
51872;SDS011;52863;52.504;13.480;2022-11-14T01:26:02;81.57;;;34.90;;
51872;SDS011;52863;52.504;13.480;2022-11-14T01:28:30;82.63;;;36.30;;
51872;SDS011;52863;52.504;13.480;2022-11-14T01:31:05;72.67;;;32.50;;
51872;SDS011;52863;52.504;13.480;2022-11-14T01:33:33;109.47;;;43.43;;
51872;SDS011;52863;52.504;13.480;2022-11-14T01:36:00;41.77;;;21.67;;
51872;SDS011;52863;52.504;13.480;2022-11-14T01:38:27;82.83;;;36.10;;
51872;SDS011;52863;52.504;13.480;2022-11-14T01:40:54;83.47;;;33.73;;
51872;SDS011;52863;52.504;13.480;2022-11-14T01:43:25;79.83;;;33.70;;
51872;SDS011;52863;52.504;13.480;2022-11-14T01:45:55;90.63;;;36.93;;
51872;SDS011;52863;52.504;13.480;2022-11-14T01:48:25;98.97;;;39.53;;
51872;SDS011;52863;52.504;13.480;2022-11-14T01:50:57;84.90;;;35.57;;
51872;SDS011;52863;52.504;13.480;2022-11-14T01:53:25;80.87;;;35.30;;
51872;SDS011;52863;52.504;13.480;2022-11-14T01:55:53;83.90;;;34.60;;
51872;SDS011;52863;52.504;13.480;2022-11-14T01:58:23;97.47;;;40.67;;
51872;SDS011;52863;52.504;13.480;2022-11-14T02:00:50;64.13;;;28.57;;
51872;SDS011;52863;52.504;13.480;2022-11-14T02:03:17;67.00;;;29.87;;
51872;SDS011;52863;52.504;13.480;2022-11-14T02:05:44;35.77;;;19.97;;
51872;SDS011;52863;52.504;13.480;2022-11-14T02:08:15;103.60;;;41.73;;
51872;SDS011;52863;52.504;13.480;2022-11-14T02:10:45;86.93;;;37.57;;
51872;SDS011;52863;52.504;13.480;2022-11-14T02:13:11;75.47;;;31.37;;
51872;SDS011;52863;52.504;13.480;2022-11-14T02:15:38;62.93;;;27.30;;
51872;SDS011;52863;52.504;13.480;2022-11-14T02:18:06;59.83;;;27.93;;
51872;SDS011;52863;52.504;13.480;2022-11-14T02:20:34;94.17;;;38.03;;
51872;SDS011;52863;52.504;13.480;2022-11-14T02:23:02;81.47;;;33.57;;
51872;SDS011;52863;52.504;13.480;2022-11-14T02:25:29;71.50;;;28.03;;
51872;SDS011;52863;52.504;13.480;2022-11-14T02:27:56;82.53;;;35.47;;
51872;SDS011;52863;52.504;13.480;2022-11-14T02:30:25;77.63;;;31.30;;
51872;SDS011;52863;52.504;13.480;2022-11-14T02:32:51;92.50;;;37.57;;
51872;SDS011;52863;52.504;13.480;2022-11-14T02:35:39;47.33;;;23.17;;
51872;SDS011;52863;52.504;13.480;2022-11-14T02:38:06;102.60;;;39.23;;
51872;SDS011;52863;52.504;13.480;2022-11-14T02:40:33;65.30;;;25.40;;
51872;SDS011;52863;52.504;13.480;2022-11-14T02:43:00;95.67;;;39.83;;
51872;SDS011;52863;52.504;13.480;2022-11-14T02:45:27;77.03;;;31.83;;
51872;SDS011;52863;52.504;13.480;2022-11-14T02:47:53;89.77;;;38.23;;
51872;SDS011;52863;52.504;13.480;2022-11-14T02:50:20;85.70;;;34.50;;
51872;SDS011;52863;52.504;13.480;2022-11-14T02:52:48;95.17;;;37.90;;
51872;SDS011;52863;52.504;13.480;2022-11-14T02:55:14;79.60;;;31.90;;
51872;SDS011;52863;52.504;13.480;2022-11-14T02:57:41;88.80;;;36.57;;
51872;SDS011;52863;52.504;13.480;2022-11-14T03:00:08;62.17;;;27.37;;
51872;SDS011;52863;52.504;13.480;2022-11-14T03:02:40;85.30;;;33.60;;
51872;SDS011;52863;52.504;13.480;2022-11-14T03:05:07;89.00;;;38.27;;
51872;SDS011;52863;52.504;13.480;2022-11-14T03:07:34;70.30;;;27.67;;
51872;SDS011;52863;52.504;13.480;2022-11-14T03:10:02;85.80;;;35.57;;
51872;SDS011;52863;52.504;13.480;2022-11-14T03:12:30;89.67;;;38.33;;
51872;SDS011;52863;52.504;13.480;2022-11-14T03:14:56;47.47;;;21.33;;
51872;SDS011;52863;52.504;13.480;2022-11-14T03:17:23;97.97;;;38.27;;
51872;SDS011;52863;52.504;13.480;2022-11-14T03:19:50;67.53;;;26.37;;
51872;SDS011;52863;52.504;13.480;2022-11-14T03:22:17;84.67;;;36.67;;
51872;SDS011;52863;52.504;13.480;2022-11-14T03:24:44;92.87;;;39.10;;
51872;SDS011;52863;52.504;13.480;2022-11-14T03:27:11;92.97;;;37.23;;
51872;SDS011;52863;52.504;13.480;2022-11-14T03:29:38;66.40;;;27.60;;
51872;SDS011;52863;52.504;13.480;2022-11-14T03:32:05;43.67;;;21.00;;
51872;SDS011;52863;52.504;13.480;2022-11-14T03:34:32;92.50;;;35.30;;
51872;SDS011;52863;52.504;13.480;2022-11-14T03:36:58;71.07;;;29.80;;
51872;SDS011;52863;52.504;13.480;2022-11-14T03:39:25;94.80;;;37.17;;
51872;SDS011;52863;52.504;13.480;2022-11-14T03:41:52;77.60;;;31.33;;
51872;SDS011;52863;52.504;13.480;2022-11-14T03:44:20;85.63;;;32.27;;
51872;SDS011;52863;52.504;13.480;2022-11-14T03:46:47;79.90;;;34.33;;
51872;SDS011;52863;52.504;13.480;2022-11-14T03:49:14;76.20;;;31.33;;
51872;SDS011;52863;52.504;13.480;2022-11-14T03:51:41;85.67;;;33.77;;
51872;SDS011;52863;52.504;13.480;2022-11-14T03:54:08;87.80;;;34.30;;
51872;SDS011;52863;52.504;13.480;2022-11-14T03:56:35;80.13;;;29.33;;
51872;SDS011;52863;52.504;13.480;2022-11-14T03:59:02;80.30;;;31.07;;
51872;SDS011;52863;52.504;13.480;2022-11-14T04:01:29;79.57;;;30.70;;
51872;SDS011;52863;52.504;13.480;2022-11-14T04:03:56;101.23;;;39.97;;
51872;SDS011;52863;52.504;13.480;2022-11-14T04:06:22;97.90;;;37.50;;
51872;SDS011;52863;52.504;13.480;2022-11-14T04:08:50;78.77;;;29.77;;
51872;SDS011;52863;52.504;13.480;2022-11-14T04:11:16;73.87;;;29.77;;
51872;SDS011;52863;52.504;13.480;2022-11-14T04:13:43;101.93;;;38.30;;
51872;SDS011;52863;52.504;13.480;2022-11-14T04:16:10;101.87;;;39.47;;
51872;SDS011;52863;52.504;13.480;2022-11-14T04:18:37;67.27;;;27.33;;
51872;SDS011;52863;52.504;13.480;2022-11-14T04:21:04;102.60;;;36.27;;
51872;SDS011;52863;52.504;13.480;2022-11-14T04:23:31;96.50;;;33.40;;
51872;SDS011;52863;52.504;13.480;2022-11-14T04:25:58;100.57;;;38.47;;
51872;SDS011;52863;52.504;13.480;2022-11-14T04:28:25;54.10;;;22.67;;
51872;SDS011;52863;52.504;13.480;2022-11-14T04:30:51;100.90;;;36.80;;
51872;SDS011;52863;52.504;13.480;2022-11-14T04:33:18;98.50;;;36.03;;
51872;SDS011;52863;52.504;13.480;2022-11-14T04:35:45;110.77;;;40.37;;
51872;SDS011;52863;52.504;13.480;2022-11-14T04:38:12;60.50;;;24.53;;
51872;SDS011;52863;52.504;13.480;2022-11-14T04:40:39;79.43;;;27.77;;
51872;SDS011;52863;52.504;13.480;2022-11-14T04:43:06;72.23;;;28.00;;
51872;SDS011;52863;52.504;13.480;2022-11-14T04:45:32;82.97;;;28.33;;
51872;SDS011;52863;52.504;13.480;2022-11-14T04:47:59;81.27;;;30.07;;
51872;SDS011;52863;52.504;13.480;2022-11-14T04:50:26;107.23;;;40.63;;
51872;SDS011;52863;52.504;13.480;2022-11-14T04:52:54;111.53;;;41.13;;
51872;SDS011;52863;52.504;13.480;2022-11-14T04:55:20;97.40;;;38.40;;
51872;SDS011;52863;52.504;13.480;2022-11-14T04:57:51;77.27;;;27.17;;
51872;SDS011;52863;52.504;13.480;2022-11-14T05:00:19;100.70;;;39.93;;
51872;SDS011;52863;52.504;13.480;2022-11-14T05:02:46;78.63;;;32.63;;
51872;SDS011;52863;52.504;13.480;2022-11-14T05:05:13;114.60;;;42.40;;
51872;SDS011;52863;52.504;13.480;2022-11-14T05:07:39;69.03;;;29.07;;
51872;SDS011;52863;52.504;13.480;2022-11-14T05:10:07;115.40;;;39.50;;
51872;SDS011;52863;52.504;13.480;2022-11-14T05:12:34;107.07;;;38.77;;
51872;SDS011;52863;52.504;13.480;2022-11-14T05:15:01;86.80;;;31.80;;
51872;SDS011;52863;52.504;13.480;2022-11-14T05:17:28;91.67;;;33.80;;
51872;SDS011;52863;52.504;13.480;2022-11-14T05:19:54;68.20;;;23.80;;
51872;SDS011;52863;52.504;13.480;2022-11-14T05:22:21;112.70;;;40.77;;
51872;SDS011;52863;52.504;13.480;2022-11-14T05:24:48;101.57;;;39.10;;
51872;SDS011;52863;52.504;13.480;2022-11-14T05:27:15;109.73;;;37.63;;
51872;SDS011;52863;52.504;13.480;2022-11-14T05:29:42;99.90;;;37.13;;
51872;SDS011;52863;52.504;13.480;2022-11-14T05:32:09;65.57;;;26.63;;
51872;SDS011;52863;52.504;13.480;2022-11-14T05:34:41;81.33;;;29.63;;
51872;SDS011;52863;52.504;13.480;2022-11-14T05:37:08;49.83;;;15.97;;
51872;SDS011;52863;52.504;13.480;2022-11-14T05:39:35;64.33;;;26.77;;
51872;SDS011;52863;52.504;13.480;2022-11-14T05:42:01;100.83;;;39.70;;
51872;SDS011;52863;52.504;13.480;2022-11-14T05:44:29;101.33;;;36.23;;
51872;SDS011;52863;52.504;13.480;2022-11-14T05:46:55;82.43;;;31.03;;
51872;SDS011;52863;52.504;13.480;2022-11-14T05:49:22;68.47;;;26.83;;
51872;SDS011;52863;52.504;13.480;2022-11-14T05:51:49;46.50;;;21.07;;
51872;SDS011;52863;52.504;13.480;2022-11-14T05:54:16;74.07;;;30.43;;
51872;SDS011;52863;52.504;13.480;2022-11-14T05:56:42;56.53;;;21.63;;
51872;SDS011;52863;52.504;13.480;2022-11-14T05:59:09;47.03;;;20.57;;
51872;SDS011;52863;52.504;13.480;2022-11-14T06:01:36;72.47;;;28.23;;
51872;SDS011;52863;52.504;13.480;2022-11-14T06:04:04;83.63;;;31.70;;
51872;SDS011;52863;52.504;13.480;2022-11-14T06:06:31;86.53;;;33.03;;
51872;SDS011;52863;52.504;13.480;2022-11-14T06:08:58;91.73;;;33.27;;
51872;SDS011;52863;52.504;13.480;2022-11-14T06:11:25;75.40;;;28.97;;
51872;SDS011;52863;52.504;13.480;2022-11-14T06:13:51;101.00;;;35.43;;
51872;SDS011;52863;52.504;13.480;2022-11-14T06:16:18;92.40;;;34.33;;
51872;SDS011;52863;52.504;13.480;2022-11-14T06:18:46;88.40;;;31.50;;
51872;SDS011;52863;52.504;13.480;2022-11-14T06:21:16;75.50;;;28.40;;
51872;SDS011;52863;52.504;13.480;2022-11-14T06:23:45;86.03;;;33.63;;
51872;SDS011;52863;52.504;13.480;2022-11-14T06:26:14;95.37;;;32.23;;
51872;SDS011;52863;52.504;13.480;2022-11-14T06:28:45;107.97;;;41.77;;
51872;SDS011;52863;52.504;13.480;2022-11-14T06:31:13;90.40;;;35.43;;
51872;SDS011;52863;52.504;13.480;2022-11-14T06:33:40;65.07;;;24.73;;
51872;SDS011;52863;52.504;13.480;2022-11-14T06:36:08;93.13;;;31.50;;
51872;SDS011;52863;52.504;13.480;2022-11-14T06:38:36;71.83;;;28.53;;
51872;SDS011;52863;52.504;13.480;2022-11-14T06:41:04;103.67;;;36.90;;
51872;SDS011;52863;52.504;13.480;2022-11-14T06:43:32;102.00;;;38.17;;
51872;SDS011;52863;52.504;13.480;2022-11-14T06:45:59;67.00;;;23.57;;
51872;SDS011;52863;52.504;13.480;2022-11-14T06:48:26;105.73;;;39.63;;
51872;SDS011;52863;52.504;13.480;2022-11-14T06:50:53;75.43;;;25.37;;
51872;SDS011;52863;52.504;13.480;2022-11-14T06:53:21;101.57;;;37.53;;
51872;SDS011;52863;52.504;13.480;2022-11-14T06:55:53;104.77;;;39.53;;
51872;SDS011;52863;52.504;13.480;2022-11-14T06:58:20;73.97;;;28.40;;
51872;SDS011;52863;52.504;13.480;2022-11-14T07:00:47;92.53;;;35.60;;
51872;SDS011;52863;52.504;13.480;2022-11-14T07:03:14;93.10;;;34.37;;
51872;SDS011;52863;52.504;13.480;2022-11-14T07:05:40;57.33;;;21.17;;
51872;SDS011;52863;52.504;13.480;2022-11-14T07:08:07;50.10;;;19.90;;
51872;SDS011;52863;52.504;13.480;2022-11-14T07:10:35;92.17;;;36.03;;
51872;SDS011;52863;52.504;13.480;2022-11-14T07:13:01;64.67;;;24.27;;
51872;SDS011;52863;52.504;13.480;2022-11-14T07:15:28;59.73;;;24.17;;
51872;SDS011;52863;52.504;13.480;2022-11-14T07:17:55;87.13;;;33.70;;
51872;SDS011;52863;52.504;13.480;2022-11-14T07:20:23;73.23;;;28.77;;
51872;SDS011;52863;52.504;13.480;2022-11-14T07:22:50;66.30;;;26.83;;
51872;SDS011;52863;52.504;13.480;2022-11-14T07:25:17;86.87;;;32.10;;
51872;SDS011;52863;52.504;13.480;2022-11-14T07:27:46;69.23;;;28.20;;
51872;SDS011;52863;52.504;13.480;2022-11-14T07:30:13;75.57;;;28.17;;
51872;SDS011;52863;52.504;13.480;2022-11-14T07:32:40;87.33;;;30.30;;
51872;SDS011;52863;52.504;13.480;2022-11-14T07:35:07;49.07;;;20.10;;
51872;SDS011;52863;52.504;13.480;2022-11-14T07:37:34;66.50;;;27.37;;
51872;SDS011;52863;52.504;13.480;2022-11-14T07:40:00;51.40;;;21.10;;
51872;SDS011;52863;52.504;13.480;2022-11-14T07:42:27;85.80;;;32.20;;
51872;SDS011;52863;52.504;13.480;2022-11-14T07:44:55;76.97;;;30.93;;
51872;SDS011;52863;52.504;13.480;2022-11-14T07:47:23;79.53;;;29.83;;
51872;SDS011;52863;52.504;13.480;2022-11-14T07:49:50;51.07;;;20.37;;
51872;SDS011;52863;52.504;13.480;2022-11-14T07:52:16;59.33;;;21.77;;
51872;SDS011;52863;52.504;13.480;2022-11-14T07:54:43;49.50;;;19.87;;
51872;SDS011;52863;52.504;13.480;2022-11-14T07:57:10;96.73;;;35.03;;
51872;SDS011;52863;52.504;13.480;2022-11-14T07:59:37;75.53;;;27.93;;
51872;SDS011;52863;52.504;13.480;2022-11-14T08:02:04;59.53;;;22.33;;
51872;SDS011;52863;52.504;13.480;2022-11-14T08:04:31;47.97;;;18.57;;
51872;SDS011;52863;52.504;13.480;2022-11-14T08:06:58;34.03;;;18.53;;
51872;SDS011;52863;52.504;13.480;2022-11-14T08:09:25;49.30;;;22.47;;
51872;SDS011;52863;52.504;13.480;2022-11-14T08:11:52;63.50;;;24.30;;
51872;SDS011;52863;52.504;13.480;2022-11-14T08:14:18;51.30;;;19.83;;
51872;SDS011;52863;52.504;13.480;2022-11-14T08:16:45;76.83;;;28.70;;
51872;SDS011;52863;52.504;13.480;2022-11-14T08:19:13;66.07;;;21.80;;
51872;SDS011;52863;52.504;13.480;2022-11-14T08:21:41;62.37;;;23.90;;
51872;SDS011;52863;52.504;13.480;2022-11-14T08:24:08;54.70;;;22.60;;
51872;SDS011;52863;52.504;13.480;2022-11-14T08:26:34;60.77;;;23.97;;
51872;SDS011;52863;52.504;13.480;2022-11-14T08:29:01;63.93;;;25.13;;
51872;SDS011;52863;52.504;13.480;2022-11-14T08:31:28;45.30;;;20.07;;
51872;SDS011;52863;52.504;13.480;2022-11-14T08:33:55;72.97;;;29.67;;
51872;SDS011;52863;52.504;13.480;2022-11-14T08:36:22;63.37;;;24.47;;
51872;SDS011;52863;52.504;13.480;2022-11-14T08:38:49;66.00;;;28.43;;
51872;SDS011;52863;52.504;13.480;2022-11-14T08:41:17;63.27;;;26.20;;
51872;SDS011;52863;52.504;13.480;2022-11-14T08:43:44;45.97;;;20.00;;
51872;SDS011;52863;52.504;13.480;2022-11-14T08:46:11;35.30;;;16.90;;
51872;SDS011;52863;52.504;13.480;2022-11-14T08:48:37;55.43;;;22.07;;
51872;SDS011;52863;52.504;13.480;2022-11-14T08:51:04;29.90;;;15.00;;
51872;SDS011;52863;52.504;13.480;2022-11-14T08:53:32;62.93;;;27.97;;
51872;SDS011;52863;52.504;13.480;2022-11-14T08:55:59;67.50;;;28.30;;
51872;SDS011;52863;52.504;13.480;2022-11-14T08:58:27;63.23;;;25.93;;
51872;SDS011;52863;52.504;13.480;2022-11-14T09:00:58;40.37;;;17.73;;
51872;SDS011;52863;52.504;13.480;2022-11-14T09:03:25;39.27;;;16.73;;
51872;SDS011;52863;52.504;13.480;2022-11-14T09:05:52;47.70;;;19.83;;
51872;SDS011;52863;52.504;13.480;2022-11-14T09:08:19;59.27;;;23.83;;
51872;SDS011;52863;52.504;13.480;2022-11-14T09:10:47;47.20;;;18.83;;
51872;SDS011;52863;52.504;13.480;2022-11-14T09:13:14;48.57;;;21.83;;
51872;SDS011;52863;52.504;13.480;2022-11-14T09:15:41;44.77;;;19.53;;
51872;SDS011;52863;52.504;13.480;2022-11-14T09:18:08;52.33;;;21.63;;
51872;SDS011;52863;52.504;13.480;2022-11-14T09:20:35;51.13;;;22.87;;
51872;SDS011;52863;52.504;13.480;2022-11-14T09:23:05;36.97;;;16.80;;
51872;SDS011;52863;52.504;13.480;2022-11-14T09:25:32;67.43;;;26.93;;
51872;SDS011;52863;52.504;13.480;2022-11-14T09:28:02;63.00;;;27.63;;
51872;SDS011;52863;52.504;13.480;2022-11-14T09:30:31;55.93;;;24.57;;
51872;SDS011;52863;52.504;13.480;2022-11-14T09:32:58;60.30;;;26.50;;
51872;SDS011;52863;52.504;13.480;2022-11-14T09:35:26;57.40;;;22.83;;
51872;SDS011;52863;52.504;13.480;2022-11-14T09:37:57;56.23;;;24.07;;
51872;SDS011;52863;52.504;13.480;2022-11-14T09:40:25;55.57;;;24.30;;
51872;SDS011;52863;52.504;13.480;2022-11-14T09:43:04;42.33;;;18.33;;
51872;SDS011;52863;52.504;13.480;2022-11-14T09:45:46;53.03;;;24.50;;
51872;SDS011;52863;52.504;13.480;2022-11-14T09:48:15;33.07;;;11.77;;
51872;SDS011;52863;52.504;13.480;2022-11-14T09:50:47;54.63;;;25.27;;
51872;SDS011;52863;52.504;13.480;2022-11-14T09:53:20;54.03;;;24.60;;
51872;SDS011;52863;52.504;13.480;2022-11-14T09:55:51;49.53;;;22.30;;
51872;SDS011;52863;52.504;13.480;2022-11-14T09:58:19;52.73;;;24.17;;
51872;SDS011;52863;52.504;13.480;2022-11-14T10:00:49;54.30;;;24.63;;
51872;SDS011;52863;52.504;13.480;2022-11-14T10:03:20;38.87;;;17.23;;
51872;SDS011;52863;52.504;13.480;2022-11-14T10:06:01;51.20;;;20.73;;
51872;SDS011;52863;52.504;13.480;2022-11-14T10:08:56;43.90;;;21.17;;
51872;SDS011;52863;52.504;13.480;2022-11-14T10:11:28;31.23;;;14.07;;
51872;SDS011;52863;52.504;13.480;2022-11-14T10:17:13;34.47;;;15.57;;
51872;SDS011;52863;52.504;13.480;2022-11-14T10:19:48;50.47;;;22.73;;
51872;SDS011;52863;52.504;13.480;2022-11-14T10:22:25;45.63;;;22.33;;
51872;SDS011;52863;52.504;13.480;2022-11-14T10:25:13;37.97;;;17.17;;
51872;SDS011;52863;52.504;13.480;2022-11-14T10:27:54;50.80;;;23.70;;
51872;SDS011;52863;52.504;13.480;2022-11-14T10:30:34;20.80;;;11.80;;
51872;SDS011;52863;52.504;13.480;2022-11-14T10:33:12;52.20;;;23.70;;
51872;SDS011;52863;52.504;13.480;2022-11-14T10:35:52;40.60;;;19.93;;
51872;SDS011;52863;52.504;13.480;2022-11-14T10:38:24;32.23;;;14.63;;
51872;SDS011;52863;52.504;13.480;2022-11-14T10:40:56;37.73;;;18.57;;
51872;SDS011;52863;52.504;13.480;2022-11-14T10:43:29;41.57;;;18.70;;
51872;SDS011;52863;52.504;13.480;2022-11-14T10:46:04;37.13;;;18.80;;
51872;SDS011;52863;52.504;13.480;2022-11-14T10:48:35;36.30;;;16.80;;
51872;SDS011;52863;52.504;13.480;2022-11-14T10:51:06;38.77;;;19.53;;
51872;SDS011;52863;52.504;13.480;2022-11-14T10:53:42;27.60;;;15.20;;
51872;SDS011;52863;52.504;13.480;2022-11-14T10:56:15;29.27;;;14.27;;
51872;SDS011;52863;52.504;13.480;2022-11-14T10:58:45;38.40;;;18.40;;
51872;SDS011;52863;52.504;13.480;2022-11-14T11:01:38;34.30;;;15.87;;
51872;SDS011;52863;52.504;13.480;2022-11-14T11:04:14;35.73;;;20.37;;
51872;SDS011;52863;52.504;13.480;2022-11-14T11:06:48;39.50;;;22.13;;
51872;SDS011;52863;52.504;13.480;2022-11-14T11:09:17;37.67;;;22.00;;
51872;SDS011;52863;52.504;13.480;2022-11-14T11:12:13;35.57;;;21.03;;
51872;SDS011;52863;52.504;13.480;2022-11-14T11:14:44;38.33;;;20.97;;
51872;SDS011;52863;52.504;13.480;2022-11-14T11:17:20;35.07;;;21.20;;
51872;SDS011;52863;52.504;13.480;2022-11-14T11:19:56;33.30;;;20.80;;
51872;SDS011;52863;52.504;13.480;2022-11-14T11:23:00;35.37;;;20.17;;
51872;SDS011;52863;52.504;13.480;2022-11-14T11:25:31;36.53;;;19.97;;
51872;SDS011;52863;52.504;13.480;2022-11-14T11:28:03;36.03;;;20.13;;
51872;SDS011;52863;52.504;13.480;2022-11-14T11:30:32;29.27;;;16.93;;
51872;SDS011;52863;52.504;13.480;2022-11-14T11:35:51;41.50;;;22.33;;
51872;SDS011;52863;52.504;13.480;2022-11-14T11:38:22;36.80;;;22.40;;
51872;SDS011;52863;52.504;13.480;2022-11-14T11:40:53;34.27;;;20.73;;
51872;SDS011;52863;52.504;13.480;2022-11-14T11:43:26;35.03;;;21.53;;
51872;SDS011;52863;52.504;13.480;2022-11-14T11:46:07;37.63;;;21.70;;
51872;SDS011;52863;52.504;13.480;2022-11-14T11:48:39;34.30;;;21.83;;
51872;SDS011;52863;52.504;13.480;2022-11-14T11:51:10;36.93;;;21.07;;
51872;SDS011;52863;52.504;13.480;2022-11-14T11:53:41;35.37;;;22.07;;
51872;SDS011;52863;52.504;13.480;2022-11-14T11:56:12;37.23;;;22.13;;
51872;SDS011;52863;52.504;13.480;2022-11-14T11:58:43;37.77;;;20.77;;
51872;SDS011;52863;52.504;13.480;2022-11-14T12:01:13;38.07;;;21.77;;
51872;SDS011;52863;52.504;13.480;2022-11-14T12:03:42;33.57;;;20.50;;
51872;SDS011;52863;52.504;13.480;2022-11-14T12:06:15;34.93;;;21.30;;
51872;SDS011;52863;52.504;13.480;2022-11-14T12:09:04;36.17;;;19.27;;
51872;SDS011;52863;52.504;13.480;2022-11-14T12:11:37;35.83;;;19.47;;
51872;SDS011;52863;52.504;13.480;2022-11-14T12:14:23;36.13;;;20.13;;
51872;SDS011;52863;52.504;13.480;2022-11-14T12:17:18;33.37;;;18.93;;
51872;SDS011;52863;52.504;13.480;2022-11-14T12:26:00;22.53;;;14.20;;
51872;SDS011;52863;52.504;13.480;2022-11-14T12:28:49;28.93;;;17.03;;
51872;SDS011;52863;52.504;13.480;2022-11-14T12:31:24;31.27;;;17.53;;
51872;SDS011;52863;52.504;13.480;2022-11-14T12:34:01;30.77;;;18.53;;
51872;SDS011;52863;52.504;13.480;2022-11-14T12:36:33;28.00;;;16.67;;
51872;SDS011;52863;52.504;13.480;2022-11-14T12:39:01;31.20;;;17.73;;
51872;SDS011;52863;52.504;13.480;2022-11-14T12:41:29;17.03;;;10.63;;
51872;SDS011;52863;52.504;13.480;2022-11-14T12:44:17;27.37;;;16.80;;
51872;SDS011;52863;52.504;13.480;2022-11-14T12:47:12;29.27;;;18.10;;
51872;SDS011;52863;52.504;13.480;2022-11-14T12:50:00;28.53;;;17.80;;
51872;SDS011;52863;52.504;13.480;2022-11-14T12:52:45;30.43;;;17.00;;
51872;SDS011;52863;52.504;13.480;2022-11-14T12:58:30;28.50;;;16.53;;
51872;SDS011;52863;52.504;13.480;2022-11-14T13:01:18;31.87;;;19.17;;
51872;SDS011;52863;52.504;13.480;2022-11-14T13:04:19;26.90;;;15.93;;
51872;SDS011;52863;52.504;13.480;2022-11-14T13:06:57;29.00;;;17.47;;
51872;SDS011;52863;52.504;13.480;2022-11-14T13:09:34;27.90;;;17.10;;
51872;SDS011;52863;52.504;13.480;2022-11-14T13:12:26;24.60;;;15.77;;
51872;SDS011;52863;52.504;13.480;2022-11-14T13:15:24;29.23;;;17.77;;
51872;SDS011;52863;52.504;13.480;2022-11-14T13:18:19;28.77;;;18.13;;
51872;SDS011;52863;52.504;13.480;2022-11-14T13:21:16;31.17;;;18.13;;
51872;SDS011;52863;52.504;13.480;2022-11-14T13:24:10;29.40;;;18.07;;
51872;SDS011;52863;52.504;13.480;2022-11-14T13:26:42;26.77;;;17.20;;
51872;SDS011;52863;52.504;13.480;2022-11-14T13:35:24;21.23;;;11.80;;
51872;SDS011;52863;52.504;13.480;2022-11-14T13:38:08;20.63;;;15.30;;
51872;SDS011;52863;52.504;13.480;2022-11-14T13:41:03;25.50;;;15.90;;
51872;SDS011;52863;52.504;13.480;2022-11-14T13:43:54;21.93;;;13.80;;
51872;SDS011;52863;52.504;13.480;2022-11-14T13:46:32;23.60;;;15.07;;
51872;SDS011;52863;52.504;13.480;2022-11-14T13:49:14;22.03;;;15.47;;
51872;SDS011;52863;52.504;13.480;2022-11-14T13:51:52;17.23;;;11.97;;
51872;SDS011;52863;52.504;13.480;2022-11-14T13:54:19;19.77;;;12.60;;
51872;SDS011;52863;52.504;13.480;2022-11-14T13:56:50;21.00;;;14.47;;
51872;SDS011;52863;52.504;13.480;2022-11-14T13:59:32;24.53;;;15.33;;
51872;SDS011;52863;52.504;13.480;2022-11-14T14:02:30;17.37;;;10.77;;
51872;SDS011;52863;52.504;13.480;2022-11-14T14:05:10;18.40;;;10.40;;
51872;SDS011;52863;52.504;13.480;2022-11-14T14:07:51;22.17;;;14.77;;
51872;SDS011;52863;52.504;13.480;2022-11-14T14:10:32;20.33;;;13.77;;
51872;SDS011;52863;52.504;13.480;2022-11-14T14:13:09;22.07;;;14.73;;
51872;SDS011;52863;52.504;13.480;2022-11-14T14:15:48;20.40;;;13.43;;
51872;SDS011;52863;52.504;13.480;2022-11-14T14:18:23;22.30;;;14.70;;
51872;SDS011;52863;52.504;13.480;2022-11-14T14:21:01;22.37;;;14.20;;
51872;SDS011;52863;52.504;13.480;2022-11-14T14:23:36;22.83;;;14.33;;
51872;SDS011;52863;52.504;13.480;2022-11-14T14:26:15;24.70;;;15.90;;
51872;SDS011;52863;52.504;13.480;2022-11-14T14:28:49;24.57;;;15.13;;
51872;SDS011;52863;52.504;13.480;2022-11-14T14:31:22;24.00;;;15.27;;
51872;SDS011;52863;52.504;13.480;2022-11-14T14:33:50;21.87;;;14.13;;
51872;SDS011;52863;52.504;13.480;2022-11-14T14:36:18;24.03;;;15.60;;
51872;SDS011;52863;52.504;13.480;2022-11-14T14:38:46;22.40;;;15.40;;
51872;SDS011;52863;52.504;13.480;2022-11-14T14:41:15;24.53;;;16.40;;
51872;SDS011;52863;52.504;13.480;2022-11-14T14:43:49;24.33;;;15.50;;
51872;SDS011;52863;52.504;13.480;2022-11-14T14:46:26;22.77;;;15.80;;
51872;SDS011;52863;52.504;13.480;2022-11-14T14:48:55;25.30;;;16.23;;